createdAt,value
2022-12-16T00:00:43.365Z,54.11
2022-12-16T00:01:48.413Z,49.67
2022-12-16T00:02:52.469Z,51.30
2022-12-16T00:03:56.395Z,45.18
2022-12-16T00:04:59.077Z,46.90
2022-12-16T00:06:00.965Z,51.70
2022-12-16T00:07:02.640Z,48.56
2022-12-16T00:08:06.142Z,45.33
2022-12-16T00:09:08.000Z,53.90
2022-12-16T00:10:10.513Z,54.30
2022-12-16T00:11:13.040Z,52.67
2022-12-16T00:12:14.840Z,58.60
2022-12-16T00:13:16.620Z,51.00
2022-12-16T00:14:18.472Z,55.56
2022-12-16T00:15:20.154Z,56.78
2022-12-16T00:16:21.994Z,49.89
2022-12-16T00:17:24.078Z,65.67
2022-12-16T00:18:26.086Z,49.67
2022-12-16T00:19:27.978Z,58.70
2022-12-16T00:20:31.015Z,62.56
2022-12-16T00:21:32.955Z,57.64
2022-12-16T00:22:35.847Z,54.67
2022-12-16T00:23:38.309Z,60.00
2022-12-16T00:24:41.290Z,56.40
2022-12-16T00:25:45.093Z,53.36
2022-12-16T00:26:47.411Z,59.80
2022-12-16T00:27:49.732Z,54.80
2022-12-16T00:28:53.462Z,58.00
2022-12-16T00:29:56.804Z,43.70
2022-12-16T00:30:58.942Z,52.00
2022-12-16T00:32:01.542Z,59.60
2022-12-16T00:33:04.861Z,57.20
2022-12-16T00:34:06.794Z,56.20
2022-12-16T00:35:09.275Z,57.22
2022-12-16T00:36:12.154Z,53.20
2022-12-16T00:37:14.135Z,54.80
2022-12-16T00:38:16.377Z,47.56
2022-12-16T00:39:18.705Z,55.50
2022-12-16T00:40:20.648Z,54.10
2022-12-16T00:41:22.523Z,40.11
2022-12-16T00:42:24.258Z,53.00
2022-12-16T00:43:26.422Z,51.11
2022-12-16T00:44:28.219Z,50.80
2022-12-16T00:45:30.795Z,50.11
2022-12-16T00:46:32.963Z,53.64
2022-12-16T00:47:36.007Z,52.89
2022-12-16T00:48:38.569Z,47.70
2022-12-16T00:49:41.138Z,52.90
2022-12-16T00:50:55.214Z,49.78
2022-12-16T00:51:58.267Z,47.70
2022-12-16T00:53:00.410Z,51.73
2022-12-16T00:54:02.579Z,54.70
2022-12-16T00:55:05.373Z,52.80
2022-12-16T00:56:11.144Z,54.00
2022-12-16T00:57:14.068Z,49.40
2022-12-16T00:58:16.292Z,51.60
2022-12-16T00:59:17.994Z,51.30
2022-12-16T01:00:20.323Z,47.22
2022-12-16T01:01:22.360Z,44.60
2022-12-16T01:02:26.023Z,47.30
2022-12-16T01:03:28.282Z,50.20
2022-12-16T01:04:30.256Z,51.80
2022-12-16T01:05:31.990Z,49.33
2022-12-16T01:06:34.412Z,43.56
2022-12-16T01:07:36.413Z,44.40
2022-12-16T01:08:38.690Z,51.78
2022-12-16T01:09:40.860Z,49.60
2022-12-16T01:10:44.661Z,39.40
2022-12-16T01:11:47.135Z,39.60
2022-12-16T01:12:49.114Z,43.00
2022-12-16T01:13:52.539Z,42.33
2022-12-16T01:14:56.275Z,38.00
2022-12-16T01:16:02.359Z,41.56
2022-12-16T01:17:04.366Z,36.30
2022-12-16T01:18:06.697Z,40.44
2022-12-16T01:19:09.778Z,34.40
2022-12-16T01:20:12.220Z,46.55
2022-12-16T01:21:15.141Z,42.70
2022-12-16T01:22:17.248Z,42.10
2022-12-16T01:23:19.192Z,41.70
2022-12-16T01:24:20.998Z,33.60
2022-12-16T01:25:22.966Z,36.00
2022-12-16T01:26:24.932Z,42.60
2022-12-16T01:27:28.595Z,35.22
2022-12-16T01:28:30.731Z,38.60
2022-12-16T01:29:32.556Z,42.30
2022-12-16T01:30:34.909Z,44.70
2022-12-16T01:31:36.707Z,44.10
2022-12-16T01:32:38.762Z,45.67
2022-12-16T01:33:44.872Z,49.60
2022-12-16T01:34:54.882Z,45.90
2022-12-16T01:36:03.883Z,52.10
2022-12-16T01:37:05.962Z,50.30
2022-12-16T01:38:07.933Z,31.60
2022-12-16T01:39:10.925Z,46.60
2022-12-16T01:40:19.872Z,55.60
2022-12-16T01:41:21.909Z,53.00
2022-12-16T01:42:23.831Z,43.11
2022-12-16T01:43:29.899Z,44.40
2022-12-16T01:44:34.878Z,43.90
2022-12-16T01:45:40.055Z,50.40
2022-12-16T01:46:45.332Z,48.80
2022-12-16T01:47:47.909Z,42.30
2022-12-16T01:48:59.529Z,38.50
2022-12-16T01:50:08.456Z,43.90
2022-12-16T01:51:33.925Z,44.90
2022-12-16T01:52:39.438Z,43.00
2022-12-16T01:53:44.220Z,44.40
2022-12-16T01:55:01.512Z,47.30
2022-12-16T06:20:26.562Z,63.10
2022-12-16T06:21:28.603Z,51.30
2022-12-16T06:22:30.382Z,48.11
2022-12-16T06:23:32.376Z,56.22
2022-12-16T06:24:34.305Z,56.22
2022-12-16T06:25:36.134Z,59.44
2022-12-16T06:26:38.038Z,61.33
2022-12-16T06:27:40.493Z,58.33
2022-12-16T06:28:45.869Z,52.40
2022-12-16T06:29:46.628Z,50.20
2022-12-16T06:30:49.751Z,51.30
2022-12-16T06:31:51.836Z,55.50
2022-12-16T06:32:53.888Z,51.60
2022-12-16T06:33:55.845Z,51.44
2022-12-16T06:34:57.706Z,53.44
2022-12-16T06:35:59.539Z,52.33
2022-12-16T06:37:01.401Z,49.44
2022-12-16T06:38:03.472Z,56.11
2022-12-16T06:39:06.397Z,50.60
2022-12-16T06:40:10.647Z,48.40
2022-12-16T06:41:12.630Z,47.50
2022-12-16T06:42:14.320Z,47.78
2022-12-16T06:43:16.198Z,54.11
2022-12-16T06:44:18.489Z,53.56
2022-12-16T06:45:20.296Z,60.70
2022-12-16T06:46:22.221Z,65.56
2022-12-16T06:47:23.999Z,60.44
2022-12-16T06:48:26.174Z,61.22
2022-12-16T06:49:28.016Z,55.60
2022-12-16T06:50:30.037Z,53.78
2022-12-16T06:51:31.804Z,52.11
2022-12-16T06:52:34.079Z,53.56
2022-12-16T06:53:36.353Z,42.70
2022-12-16T06:54:38.241Z,53.10
2022-12-16T06:55:39.986Z,52.11
2022-12-16T06:56:41.821Z,65.67
2022-12-16T06:57:43.613Z,64.67
2022-12-16T06:58:46.487Z,55.11
2022-12-16T06:59:48.336Z,54.91
2022-12-16T07:00:50.590Z,51.00
2022-12-16T07:01:52.635Z,52.10
2022-12-16T07:02:54.766Z,51.40
2022-12-16T07:03:56.772Z,51.10
2022-12-16T07:04:58.748Z,51.20
2022-12-16T07:06:00.555Z,54.11
2022-12-16T07:07:02.476Z,52.00
2022-12-16T07:08:04.362Z,59.56
2022-12-16T07:09:06.787Z,54.00
2022-12-16T07:10:09.215Z,47.60
2022-12-16T07:11:16.481Z,53.78
2022-12-16T07:12:14.999Z,56.30
2022-12-16T07:13:16.935Z,57.00
